Time;durP1;ratioP1;P1;durP2;ratioP2;P2;SDS_P1;SDS_P2;PMS_P1;PMS_P2;Temp;Humidity;BMP_temperature;BMP_pressure;BME280_temperature;BME280_humidity;BME280_pressure;Samples;Min_cycle;Max_cycle;Signal;HPM_P1;HPM_P2
2023/12/20 12:44:22;;;;;;;;;;;;;;;7.91;61.48;100102.34;1088674;54;1054;-78
2023/12/20 12:45:24;;;;;;;;;;;;;;;7.79;61.71;100111.31;1088772;54;984;-77
2023/12/20 12:46:27;;;;;;;;;;;;;;;7.71;62.13;100101.28;1088847;54;852;-77
2023/12/20 12:47:28;;;;;;;;;;;;;;;7.61;62.19;100101.22;1088408;54;1110;-78
2023/12/20 12:48:32;;;;;;;;;;;;;;;7.40;62.73;100102.94;1088414;46;1448;-77
2023/12/20 12:49:33;;;;;;;;;;;;;;;7.39;63.29;100109.22;1088561;46;1410;-77
2023/12/20 12:50:36;;;;;;;;;;;;;;;7.58;62.85;100112.09;1088463;47;1493;-77
2023/12/20 12:51:36;;;;;;;;;;;;;;;7.72;62.49;100096.84;1088389;46;960;-77
2023/12/20 12:52:37;;;;;;;;;;;;;;;7.95;61.77;100097.59;1088404;54;1871;-78
2023/12/20 12:53:40;;;;;;;;;;;;;;;7.93;61.99;100095.09;1088450;54;1020;-77
2023/12/20 12:54:42;;;;;;;;;;;;;;;7.85;62.37;100092.19;1088479;54;1032;-77
2023/12/20 12:55:45;;;;;;;;;;;;;;;7.96;62.37;100096.63;1088678;46;974;-76
2023/12/20 12:56:47;;;;;;;;;;;;;;;8.10;61.83;100100.81;1088484;46;1062;-77
2023/12/20 12:57:50;;;;;;;;;;;;;;;8.13;61.87;100089.88;1088310;46;1338;-76
2023/12/20 12:58:51;;;;;;;;;;;;;;;7.76;62.21;100092.94;1088255;54;1084;-78
2023/12/20 12:59:58;;;;;;;;;;;;;;;7.78;62.55;100102.50;1088316;47;982;-77
2023/12/20 13:00:59;;;;;;;;;;;;;;;7.86;62.19;100096.53;1088419;54;985;-77
2023/12/20 13:02:02;;;;;;;;;;;;;;;7.48;63.28;100090.72;1088012;47;1019;-77
2023/12/20 13:03:03;;;;;;;;;;;;;;;7.53;63.37;100108.09;1088189;47;1130;-76
2023/12/20 13:04:10;;;;;;;;;;;;;;;7.58;63.45;100104.09;1088334;54;1075;-77
2023/12/20 13:05:11;;;;;;;;;;;;;;;7.45;63.86;100116.72;1088433;46;999;-77
2023/12/20 13:06:14;;;;;;;;;;;;;;;7.58;63.52;100092.63;1088227;47;1120;-77
2023/12/20 13:07:15;;;;;;;;;;;;;;;7.67;63.66;100115.84;1088419;46;945;-76
2023/12/20 13:08:18;;;;;;;;;;;;;;;7.71;63.86;100108.44;1088178;47;1374;-78
2023/12/20 13:09:19;;;;;;;;;;;;;;;7.70;64.35;100109.41;1088186;47;1051;-77
2023/12/20 13:10:20;;;;;;;;;;;;;;;7.36;65.17;100110.31;1087993;54;1519;-77
2023/12/20 13:11:23;;;;;;;;;;;;;;;7.52;65.23;100101.09;1088271;54;1058;-78
2023/12/20 13:12:23;;;;;;;;;;;;;;;7.62;64.95;100107.38;1088020;47;1856;-78
2023/12/20 13:13:24;;;;;;;;;;;;;;;7.50;65.54;100103.88;1087932;47;1083;-77
2023/12/20 13:14:27;;;;;;;;;;;;;;;7.42;66.01;100093.84;1088016;47;1150;-77
2023/12/20 13:15:31;;;;;;;;;;;;;;;7.54;65.97;100100.03;1088137;54;1123;-77
2023/12/20 13:16:34;;;;;;;;;;;;;;;7.65;65.78;100097.31;1087993;46;941;-77
2023/12/20 13:17:34;;;;;;;;;;;;;;;7.32;66.80;100098.25;1088010;46;897;-78
2023/12/20 13:18:42;;;;;;;;;;;;;;;7.41;66.82;100089.53;1088160;46;1165;-78
2023/12/20 13:19:42;;;;;;;;;;;;;;;7.57;66.40;100091.78;1088376;54;1105;-79
2023/12/20 13:20:47;;;;;;;;;;;;;;;7.28;66.92;100099.44;1088452;54;974;-78
2023/12/20 13:21:48;;;;;;;;;;;;;;;7.03;67.39;100088.09;1088326;46;964;-80
2023/12/20 13:22:51;;;;;;;;;;;;;;;7.09;67.03;100084.94;1088231;46;960;-80
2023/12/20 13:23:53;;;;;;;;;;;;;;;7.13;66.68;100086.38;1088317;47;1031;-80
2023/12/20 13:24:54;;;;;;;;;;;;;;;6.86;67.38;100084.09;1088442;54;1083;-79
2023/12/20 13:25:58;;;;;;;;;;;;;;;6.95;66.96;100093.16;1088334;46;1015;-80
2023/12/20 13:26:58;;;;;;;;;;;;;;;6.98;66.71;100109.72;1088368;54;932;-78
2023/12/20 13:28:02;;;;;;;;;;;;;;;7.17;66.32;100108.28;1088222;47;1326;-79
2023/12/20 13:29:03;;;;;;;;;;;;;;;7.34;65.88;100098.94;1088290;54;1433;-80
2023/12/20 13:30:07;;;;;;;;;;;;;;;7.37;65.55;100105.84;1088182;47;1150;-80
2023/12/20 13:31:10;;;;;;;;;;;;;;;7.38;65.55;100096.88;1088505;54;1040;-79
2023/12/20 13:32:14;;;;;;;;;;;;;;;7.31;65.86;100105.34;1088223;47;1872;-79
2023/12/20 13:33:15;;;;;;;;;;;;;;;7.16;65.91;100098.63;1088477;46;1087;-79
2023/12/20 13:34:19;;;;;;;;;;;;;;;7.25;65.75;100111.19;1088244;54;1142;-79
2023/12/20 13:35:21;;;;;;;;;;;;;;;7.34;65.61;100107.78;1087800;54;1067;-78
2023/12/20 13:36:24;;;;;;;;;;;;;;;7.01;66.10;100101.50;1087945;54;1574;-79
2023/12/20 13:37:27;;;;;;;;;;;;;;;7.05;66.08;100102.09;1087392;46;1126;-78
2023/12/20 13:38:30;;;;;;;;;;;;;;;6.88;66.59;100114.06;1087342;47;1281;-79
2023/12/20 13:39:31;;;;;;;;;;;;;;;7.00;66.42;100106.94;1087970;47;1134;-78
2023/12/20 13:40:32;;;;;;;;;;;;;;;7.16;66.08;100101.28;1087574;54;1178;-78
2023/12/20 13:41:36;;;;;;;;;;;;;;;7.01;66.66;100104.16;1087576;54;1158;-80
2023/12/20 13:42:36;;;;;;;;;;;;;;;6.84;67.27;100104.63;1087921;54;1138;-79
2023/12/20 13:43:39;;;;;;;;;;;;;;;6.80;67.49;100106.69;1087315;47;1491;-79
2023/12/20 13:44:41;;;;;;;;;;;;;;;6.67;67.82;100095.31;1086399;47;1130;-77
2023/12/20 13:45:44;;;;;;;;;;;;;;;6.84;67.53;100096.66;1085969;47;1459;-78
2023/12/20 13:46:49;;;;;;;;;;;;;;;6.78;67.59;100091.84;1086684;54;894;-78
2023/12/20 13:47:52;;;;;;;;;;;;;;;6.76;67.82;100094.59;1085776;47;1319;-78
2023/12/20 13:48:53;;;;;;;;;;;;;;;6.63;67.94;100096.53;1086749;46;1094;-78
2023/12/20 13:49:56;;;;;;;;;;;;;;;6.65;68.33;100090.13;1085931;54;1113;-78
2023/12/20 13:50:58;;;;;;;;;;;;;;;6.77;67.68;100096.28;1086727;46;1164;-78
2023/12/20 13:52:03;;;;;;;;;;;;;;;6.96;67.14;100085.06;1085049;46;1061;-77
2023/12/20 13:53:04;;;;;;;;;;;;;;;7.06;66.97;100095.00;1085222;47;1866;-77
2023/12/20 13:54:10;;;;;;;;;;;;;;;6.82;67.42;100087.94;1085225;54;1126;-77
2023/12/20 13:55:11;;;;;;;;;;;;;;;6.94;67.42;100081.69;1085889;47;1166;-77
2023/12/20 13:56:14;;;;;;;;;;;;;;;7.14;66.81;100081.94;1086361;54;1099;-79
2023/12/20 13:57:15;;;;;;;;;;;;;;;7.20;66.68;100078.78;1087469;47;1075;-78
2023/12/20 13:58:18;;;;;;;;;;;;;;;7.30;66.46;100071.75;1086539;47;1361;-78
2023/12/20 13:59:20;;;;;;;;;;;;;;;7.18;66.82;100070.06;1086850;54;1466;-78
2023/12/20 14:00:23;;;;;;;;;;;;;;;7.18;66.81;100064.75;1086481;47;1046;-77
2023/12/20 14:01:24;;;;;;;;;;;;;;;7.05;67.40;100051.59;1087349;47;1123;-78
2023/12/20 14:02:30;;;;;;;;;;;;;;;6.66;68.35;100051.13;1087317;54;1590;-79
2023/12/20 14:03:31;;;;;;;;;;;;;;;6.67;68.87;100063.41;1087216;54;1111;-78
2023/12/20 14:04:34;;;;;;;;;;;;;;;6.63;69.09;100062.81;1087275;47;1054;-78
2023/12/20 14:05:35;;;;;;;;;;;;;;;6.81;68.77;100059.69;1086495;54;1101;-78
2023/12/20 14:06:38;;;;;;;;;;;;;;;6.96;68.04;100063.81;1085441;54;1131;-77
2023/12/20 14:07:39;;;;;;;;;;;;;;;6.76;68.63;100056.56;1085706;54;1379;-77
2023/12/20 14:08:42;;;;;;;;;;;;;;;6.72;69.44;100056.78;1086038;47;1118;-78
2023/12/20 14:09:45;;;;;;;;;;;;;;;6.56;70.00;100058.94;1086441;54;1073;-78
2023/12/20 14:10:48;;;;;;;;;;;;;;;6.28;71.63;100052.28;1086854;46;1182;-77
2023/12/20 14:11:49;;;;;;;;;;;;;;;6.25;71.95;100055.97;1086949;54;996;-78
2023/12/20 14:12:49;;;;;;;;;;;;;;;6.44;71.49;100055.44;1087233;54;1860;-77
2023/12/20 14:13:57;;;;;;;;;;;;;;;6.38;71.90;100055.88;1087244;47;1083;-80
2023/12/20 14:14:58;;;;;;;;;;;;;;;6.37;72.20;100052.41;1087548;54;933;-78
2023/12/20 14:16:03;;;;;;;;;;;;;;;6.34;72.04;100046.47;1086180;47;1172;-76
2023/12/20 14:17:06;;;;;;;;;;;;;;;6.46;71.89;100047.34;1087554;54;1465;-76
2023/12/20 14:18:14;;;;;;;;;;;;;;;6.53;71.55;100035.28;1087545;47;1470;-76
2023/12/20 14:19:15;;;;;;;;;;;;;;;6.52;71.74;100045.06;1087798;54;1083;-75
2023/12/20 14:20:16;;;;;;;;;;;;;;;6.38;72.56;100037.31;1087844;54;1130;-76
2023/12/20 14:21:19;;;;;;;;;;;;;;;6.45;72.23;100041.19;1087580;47;996;-77
2023/12/20 14:22:20;;;;;;;;;;;;;;;6.60;71.68;100030.34;1087121;47;1031;-78
2023/12/20 14:23:22;;;;;;;;;;;;;;;6.45;72.32;100038.53;1087251;54;1106;-77
2023/12/20 14:24:26;;;;;;;;;;;;;;;6.32;72.36;100037.78;1087089;54;1120;-77
2023/12/20 14:25:27;;;;;;;;;;;;;;;6.39;71.94;100033.69;1087174;46;1048;-78
2023/12/20 14:26:37;;;;;;;;;;;;;;;6.40;72.52;100044.22;1087909;54;1107;-80
2023/12/20 14:27:37;;;;;;;;;;;;;;;6.27;72.75;100035.47;1087200;54;1162;-78
2023/12/20 14:28:41;;;;;;;;;;;;;;;6.23;72.53;100034.88;1086255;54;1039;-77
2023/12/20 14:29:41;;;;;;;;;;;;;;;6.29;72.56;100044.19;1086679;46;1254;-79
2023/12/20 14:30:43;;;;;;;;;;;;;;;6.45;72.34;100043.84;1086668;46;1624;-78
2023/12/20 14:31:46;;;;;;;;;;;;;;;6.39;72.38;100041.66;1086767;54;1057;-77
2023/12/20 14:32:47;;;;;;;;;;;;;;;6.51;71.87;100031.91;1086798;47;1910;-78
2023/12/20 14:33:54;;;;;;;;;;;;;;;6.55;71.59;100033.34;1087077;54;1177;-78
2023/12/20 14:34:55;;;;;;;;;;;;;;;6.52;71.66;100039.75;1086302;54;995;-77
2023/12/20 14:35:58;;;;;;;;;;;;;;;6.61;71.59;100027.56;1085955;47;1149;-76
2023/12/20 14:36:59;;;;;;;;;;;;;;;6.49;71.95;100029.34;1085475;54;1160;-78
2023/12/20 14:38:03;;;;;;;;;;;;;;;6.36;71.45;100026.81;1087371;47;1430;-78
2023/12/20 14:39:04;;;;;;;;;;;;;;;6.34;71.26;100028.72;1086474;54;1674;-76
2023/12/20 14:40:05;;;;;;;;;;;;;;;6.33;71.27;100028.84;1086376;54;1117;-77
2023/12/20 14:41:09;;;;;;;;;;;;;;;6.36;70.86;100024.16;1086756;47;1559;-78
2023/12/20 14:42:13;;;;;;;;;;;;;;;6.38;70.87;100032.84;1087140;54;1146;-78
2023/12/20 14:43:16;;;;;;;;;;;;;;;6.49;70.91;100028.53;1086689;46;1034;-78
2023/12/20 14:44:17;;;;;;;;;;;;;;;6.43;71.09;100018.34;1087172;47;1066;-79
2023/12/20 14:45:19;;;;;;;;;;;;;;;6.44;70.96;100017.41;1087128;54;1102;-78
2023/12/20 14:46:23;;;;;;;;;;;;;;;6.37;71.28;100023.19;1086626;54;1358;-79
2023/12/20 14:47:24;;;;;;;;;;;;;;;6.30;71.10;100014.00;1087789;54;1195;-79
2023/12/20 14:48:28;;;;;;;;;;;;;;;6.40;71.12;100015.00;1087673;54;1422;-78
2023/12/20 14:49:34;;;;;;;;;;;;;;;6.28;71.36;100018.59;1087625;54;1106;-77
2023/12/20 14:50:40;;;;;;;;;;;;;;;6.44;70.99;100004.13;1087628;47;980;-77
2023/12/20 14:51:43;;;;;;;;;;;;;;;6.30;71.17;100014.00;1087669;54;1097;-77
2023/12/20 14:52:47;;;;;;;;;;;;;;;6.45;70.83;100005.81;1087934;46;1879;-77
2023/12/20 14:53:47;;;;;;;;;;;;;;;6.48;70.68;100005.59;1087900;46;1015;-77
2023/12/20 14:54:53;;;;;;;;;;;;;;;6.36;70.88;100008.22;1087666;47;1430;-78
2023/12/20 14:55:54;;;;;;;;;;;;;;;6.37;70.88;100020.53;1087792;54;1047;-78
2023/12/20 14:56:57;;;;;;;;;;;;;;;6.35;70.98;100017.16;1087756;54;1086;-77
2023/12/20 14:58:00;;;;;;;;;;;;;;;6.21;71.06;100025.34;1087548;54;1296;-78
2023/12/20 14:59:04;;;;;;;;;;;;;;;6.42;70.81;100032.63;1087549;47;1067;-78
2023/12/20 15:00:05;;;;;;;;;;;;;;;6.53;70.25;100030.81;1087602;54;1147;-78
2023/12/20 15:01:09;;;;;;;;;;;;;;;6.36;70.73;100024.16;1087761;54;1579;-77
2023/12/20 15:02:10;;;;;;;;;;;;;;;6.31;70.53;100034.28;1087558;46;940;-78
2023/12/20 15:03:16;;;;;;;;;;;;;;;6.45;70.44;100030.56;1087578;46;1082;-77
2023/12/20 15:04:17;;;;;;;;;;;;;;;6.47;70.18;100041.06;1087360;54;1098;-77
2023/12/20 15:05:21;;;;;;;;;;;;;;;6.49;69.94;100028.53;1087579;54;1110;-77
2023/12/20 15:06:25;;;;;;;;;;;;;;;6.61;69.92;100032.03;1087428;47;1022;-77
2023/12/20 15:07:27;;;;;;;;;;;;;;;6.43;70.22;100029.84;1086798;54;1138;-77
2023/12/20 15:10:06;;;;;;;;;;;;;;;6.31;70.67;100028.97;1086293;47;1043;-76
2023/12/20 15:11:06;;;;;;;;;;;;;;;6.34;70.73;100030.56;1086117;54;1063;-78
2023/12/20 15:12:10;;;;;;;;;;;;;;;6.30;70.61;100024.63;1085977;54;1127;-76
2023/12/20 15:13:12;;;;;;;;;;;;;;;6.32;70.77;100022.72;1086411;47;1896;-77
2023/12/20 15:14:19;;;;;;;;;;;;;;;6.59;70.33;100015.34;1086937;54;1127;-77
2023/12/20 15:15:20;;;;;;;;;;;;;;;6.47;70.27;100017.16;1087730;54;1186;-78
2023/12/20 15:16:23;;;;;;;;;;;;;;;6.47;70.35;100004.72;1087659;47;996;-78
2023/12/20 15:17:25;;;;;;;;;;;;;;;6.42;70.27;100022.00;1087729;47;979;-79
2023/12/20 15:18:30;;;;;;;;;;;;;;;6.59;69.78;100026.84;1087425;54;1424;-77
2023/12/20 15:19:31;;;;;;;;;;;;;;;6.70;69.56;100029.53;1086607;54;1062;-77
2023/12/20 15:20:37;;;;;;;;;;;;;;;6.81;69.22;100027.78;1086343;54;1111;-77
2023/12/20 15:21:41;;;;;;;;;;;;;;;6.48;69.92;100026.81;1087687;46;1169;-78
2023/12/20 15:22:45;;;;;;;;;;;;;;;6.45;69.84;100033.22;1087568;54;972;-77
2023/12/20 15:23:52;;;;;;;;;;;;;;;6.45;70.04;100035.03;1087130;47;1008;-77
2023/12/20 15:25:00;;;;;;;;;;;;;;;6.38;70.33;100030.19;1087032;54;1027;-78
2023/12/20 15:26:02;;;;;;;;;;;;;;;6.44;70.28;100020.91;1086782;46;1006;-77
2023/12/20 15:28:33;;;;;;;;;;;;;;;6.51;69.53;100018.63;1086856;46;1324;-79
2023/12/20 15:30:41;;;;;;;;;;;;;;;6.30;70.35;100008.69;1086888;54;1111;-80
2023/12/20 15:31:16;;;;;;;;;;;;;;;6.25;70.77;100013.50;1086747;46;1085;-78
2023/12/20 15:32:25;;;;;;;;;;;;;;;6.28;70.45;100015.09;1086161;54;1024;-77
